KBOW/BOW METAR and TAF weather

Enter ICAO airport designator
Station Type Date Time Source
KBOW METAR 2020/09/27 16:50 UTC NOAA

KBOW 271650Z 11005KT 10SM SCT030 32/23 A2998


Station Type Date Time Source
KBOW Decoded METAR 2020/09/27 16:50 UTC NOAA

Bartow Municipal, FL, United States (KBOW) 27-57N 081-47W
Sep 27, 2020 - 12:50 PM EDT / 2020.09.27 1650 UTC
Wind: from the ESE (110 degrees) at 6 MPH (5 KT):0
Visibility: 10 mile(s):0
Sky conditions: partly cloudy
Temperature: 89 F (32 C)
Heat index: 96.8 F (36.0 C):1
Dew Point: 73 F (23 C)
Relative Humidity: 59%
Pressure (altimeter): 29.98 in. Hg (1015 hPa)
ob: KBOW 271650Z 11005KT 10SM SCT030 32/23 A2998
cycle: 17

Station Type Date Time Source
KBOW TAF UTC NOAA

Error!

Example: see airport list